createdAt,value
2019-04-26T00:00:45.950Z,15.95
2019-04-26T00:03:53.320Z,15.94
2019-04-26T00:07:01.005Z,16.05
2019-04-26T00:10:36.289Z,16.02
2019-04-26T00:14:08.735Z,16.12
2019-04-26T00:17:23.176Z,16.36
2019-04-26T00:20:44.477Z,16.27
2019-04-26T00:24:01.285Z,16.19
2019-04-26T00:27:18.988Z,16.39
2019-04-26T00:30:26.436Z,16.42
2019-04-26T00:33:33.753Z,16.42
2019-04-26T00:36:40.985Z,16.37
2019-04-26T00:39:48.216Z,16.45
2019-04-26T00:42:57.570Z,16.39
2019-04-26T00:46:04.823Z,16.50
2019-04-26T00:49:21.538Z,16.32
2019-04-26T00:52:39.484Z,16.63
2019-04-26T00:55:47.923Z,16.39
2019-04-26T00:58:55.591Z,16.46
2019-04-26T01:02:18.576Z,16.49
2019-04-26T01:05:26.355Z,16.48
2019-04-26T01:08:43.266Z,16.44
2019-04-26T01:12:00.122Z,16.43
2019-04-26T01:15:19.612Z,16.44
2019-04-26T01:18:35.766Z,16.40
2019-04-26T01:21:56.132Z,16.27
2019-04-26T01:25:04.667Z,16.13
2019-04-26T01:28:32.095Z,16.52
2019-04-26T01:31:45.632Z,16.56
2019-04-26T01:34:54.283Z,16.58
2019-04-26T01:38:02.316Z,16.49
2019-04-26T01:41:14.574Z,16.21
2019-04-26T01:44:41.629Z,16.49
2019-04-26T01:47:51.701Z,16.65
2019-04-26T01:50:59.839Z,16.24
2019-04-26T01:54:07.152Z,16.28
2019-04-26T01:57:14.915Z,16.20
2019-04-26T02:00:49.265Z,15.84
2019-04-26T02:03:56.581Z,15.65
2019-04-26T02:07:04.991Z,15.81
2019-04-26T02:10:13.998Z,16.16
2019-04-26T02:13:22.529Z,16.24
2019-04-26T02:16:40.691Z,16.32
2019-04-26T02:19:57.344Z,16.43
2019-04-26T02:23:14.946Z,16.14
2019-04-26T02:26:32.629Z,16.07
2019-04-26T02:30:33.143Z,15.46
2019-04-26T02:33:49.915Z,15.35
2019-04-26T02:37:08.561Z,15.60
2019-04-26T02:40:17.482Z,15.39
2019-04-26T02:43:35.413Z,15.28
2019-04-26T02:47:28.935Z,15.31
2019-04-26T02:51:00.810Z,15.19
2019-04-26T02:54:20.631Z,15.62
2019-04-26T02:57:39.994Z,15.61
2019-04-26T03:00:47.272Z,15.64
2019-04-26T03:04:04.153Z,15.49
2019-04-26T03:07:40.017Z,14.99
2019-04-26T03:10:55.063Z,15.10
2019-04-26T03:14:21.452Z,15.08
2019-04-26T03:17:43.075Z,14.88
2019-04-26T03:20:55.898Z,14.88
2019-04-26T03:24:13.079Z,14.58
2019-04-26T03:27:49.548Z,15.32
2019-04-26T03:31:10.547Z,14.76
2019-04-26T03:34:26.953Z,14.82
2019-04-26T03:38:17.117Z,15.12
2019-04-26T03:42:10.463Z,14.54
2019-04-26T03:45:24.838Z,14.78
2019-04-26T03:49:02.772Z,14.44
2019-04-26T03:52:39.671Z,14.30
2019-04-26T03:56:29.286Z,14.07
2019-04-26T04:00:05.194Z,14.34
2019-04-26T04:03:41.656Z,14.28
2019-04-26T04:06:58.109Z,14.39
2019-04-26T04:10:04.765Z,13.95
2019-04-26T04:13:42.718Z,14.35
2019-04-26T04:17:13.101Z,14.12
2019-04-26T04:21:00.503Z,14.09
2019-04-26T04:24:41.645Z,14.59
2019-04-26T04:28:40.427Z,14.33
2019-04-26T04:31:52.414Z,14.29
2019-04-26T04:35:06.295Z,14.50
2019-04-26T04:38:31.888Z,14.43
2019-04-26T04:42:24.785Z,14.53
2019-04-26T04:46:13.207Z,14.65
2019-04-26T04:49:54.575Z,14.40
2019-04-26T04:53:33.133Z,14.60
2019-04-26T04:56:45.781Z,14.46
2019-04-26T05:00:11.797Z,14.61
2019-04-26T05:03:39.046Z,14.12
2019-04-26T05:07:16.489Z,14.30
2019-04-26T05:10:44.214Z,14.45
2019-04-26T05:13:59.739Z,14.43
2019-04-26T05:17:36.927Z,14.10
2019-04-26T05:21:08.757Z,14.45
2019-04-26T05:24:28.290Z,14.55
2019-04-26T05:28:06.089Z,14.32
2019-04-26T05:31:37.638Z,13.86
2019-04-26T05:35:07.899Z,14.31
2019-04-26T05:39:06.658Z,14.09
2019-04-26T05:43:14.182Z,13.98
2019-04-26T05:47:05.191Z,14.43
2019-04-26T05:51:08.425Z,14.56
2019-04-26T05:55:11.984Z,14.57
2019-04-26T05:58:27.938Z,14.43
2019-04-26T06:02:01.926Z,14.63
2019-04-26T06:05:47.288Z,14.70
2019-04-26T06:10:05.432Z,14.51
2019-04-26T06:14:01.999Z,14.94
2019-04-26T06:17:51.622Z,14.73
2019-04-26T06:21:38.957Z,14.70
2019-04-26T06:25:09.238Z,14.69
2019-04-26T06:28:50.136Z,14.77
2019-04-26T06:32:28.620Z,14.76
2019-04-26T06:35:49.422Z,15.11
2019-04-26T06:39:32.163Z,15.23
2019-04-26T06:43:19.882Z,15.12
2019-04-26T06:47:04.070Z,15.23
2019-04-26T06:50:24.138Z,15.44
2019-04-26T06:54:21.427Z,15.30
2019-04-26T06:58:18.477Z,15.42
2019-04-26T07:02:35.253Z,15.60
2019-04-26T07:05:44.770Z,15.56
2019-04-26T07:09:11.514Z,15.59
2019-04-26T07:12:37.547Z,15.84
2019-04-26T07:16:17.775Z,15.79
2019-04-26T07:20:28.245Z,15.82
2019-04-26T07:24:20.060Z,15.97
2019-04-26T07:28:03.841Z,15.97
2019-04-26T07:31:11.479Z,16.03
2019-04-26T07:34:40.162Z,15.89
2019-04-26T07:38:16.456Z,15.77
2019-04-26T07:42:23.133Z,15.88
2019-04-26T07:46:02.872Z,16.06
2019-04-26T07:49:56.474Z,16.02
2019-04-26T07:53:28.235Z,16.09
2019-04-26T07:57:39.812Z,16.19
2019-04-26T08:00:53.761Z,16.41
2019-04-26T08:04:07.299Z,16.43
2019-04-26T08:07:20.489Z,16.52
2019-04-26T08:10:39.274Z,16.75
2019-04-26T08:14:12.965Z,16.60
2019-04-26T08:17:31.931Z,16.74
2019-04-26T08:20:52.644Z,16.66
2019-04-26T08:24:08.454Z,16.49
2019-04-26T08:27:27.837Z,16.57
2019-04-26T08:30:46.902Z,16.68
2019-04-26T08:33:59.490Z,16.63
2019-04-26T08:37:19.010Z,16.71
2019-04-26T08:40:31.090Z,16.66
2019-04-26T08:44:03.504Z,16.78
2019-04-26T08:47:28.843Z,16.59
2019-04-26T08:50:47.014Z,16.80
2019-04-26T08:53:55.179Z,16.91
2019-04-26T08:57:20.925Z,16.97
2019-04-26T09:00:44.938Z,16.97
2019-04-26T09:04:02.945Z,16.95
2019-04-26T09:07:30.325Z,16.93
2019-04-26T09:10:48.636Z,17.00
2019-04-26T09:14:06.481Z,16.95
2019-04-26T09:17:13.898Z,16.98
2019-04-26T09:20:28.748Z,16.74
2019-04-26T09:23:51.853Z,16.83
2019-04-26T09:27:21.124Z,17.07
2019-04-26T09:30:34.143Z,17.22
2019-04-26T09:33:45.743Z,17.23
2019-04-26T09:36:53.002Z,17.26
2019-04-26T09:40:10.056Z,17.26
2019-04-26T09:43:17.792Z,16.94
2019-04-26T09:46:52.924Z,16.97
2019-04-26T09:50:34.834Z,17.12
2019-04-26T09:53:53.594Z,17.29
2019-04-26T09:57:00.927Z,17.47
2019-04-26T10:00:24.210Z,17.54
2019-04-26T10:03:41.076Z,17.62
2019-04-26T10:06:46.751Z,17.71
2019-04-26T10:09:56.465Z,17.63
2019-04-26T10:13:38.706Z,17.53
2019-04-26T10:17:07.634Z,17.61
2019-04-26T10:20:15.026Z,17.48
2019-04-26T10:23:22.169Z,17.18
2019-04-26T10:26:29.884Z,17.12
2019-04-26T10:29:37.289Z,17.25
2019-04-26T10:32:44.811Z,17.34
2019-04-26T10:36:01.382Z,17.47
2019-04-26T10:39:10.554Z,17.46
2019-04-26T10:42:27.196Z,17.55
2019-04-26T10:45:34.537Z,17.51
2019-04-26T10:48:45.510Z,17.35
2019-04-26T10:52:00.263Z,17.56
2019-04-26T10:55:55.921Z,17.15
2019-04-26T11:02:14.996Z,16.86
2019-04-26T11:05:22.430Z,16.60
2019-04-26T11:08:30.241Z,16.57
2019-04-26T11:11:46.772Z,16.72
2019-04-26T11:14:56.914Z,16.52
2019-04-26T11:18:13.201Z,16.51
2019-04-26T11:21:22.300Z,16.48
2019-04-26T11:24:38.791Z,16.45
2019-04-26T11:27:55.580Z,16.38
2019-04-26T11:31:12.827Z,16.11
2019-04-26T11:34:29.385Z,16.28
2019-04-26T11:37:36.183Z,16.35
2019-04-26T11:40:44.309Z,16.35
2019-04-26T11:44:02.094Z,16.53
2019-04-26T11:47:18.980Z,16.43
2019-04-26T11:50:35.861Z,16.75
2019-04-26T11:53:52.565Z,16.66
2019-04-26T11:57:12.084Z,17.00
2019-04-26T12:00:35.782Z,17.34
2019-04-26T12:04:49.536Z,17.48
2019-04-26T12:08:04.166Z,17.25
2019-04-26T12:11:34.326Z,17.19
2019-04-26T12:14:44.656Z,17.16
2019-04-26T12:17:58.399Z,17.32
2019-04-26T12:21:02.048Z,17.22
2019-04-26T12:24:09.449Z,17.11
2019-04-26T12:27:16.794Z,16.86
2019-04-26T12:30:26.730Z,16.80
2019-04-26T12:33:33.266Z,16.79
2019-04-26T12:36:40.517Z,16.92
2019-04-26T12:39:47.883Z,17.03
2019-04-26T12:42:55.121Z,16.87
2019-04-26T12:46:22.773Z,16.97
2019-04-26T12:49:45.385Z,17.10
2019-04-26T12:52:55.567Z,17.04
2019-04-26T12:56:01.498Z,16.91
2019-04-26T12:59:18.310Z,17.02
2019-04-26T13:02:35.093Z,17.00
2019-04-26T13:05:42.415Z,17.01
2019-04-26T13:08:59.131Z,17.01
2019-04-26T13:12:21.423Z,16.89
2019-04-26T13:16:09.330Z,16.82
2019-04-26T13:19:19.851Z,16.75
2019-04-26T13:22:45.322Z,16.61
2019-04-26T13:25:55.438Z,16.70
2019-04-26T13:29:12.113Z,16.64
2019-04-26T13:32:18.297Z,16.58
2019-04-26T13:35:25.554Z,16.54
2019-04-26T13:38:33.234Z,16.68
2019-04-26T13:41:40.726Z,16.79
2019-04-26T13:45:16.637Z,16.50
2019-04-26T13:48:43.615Z,16.45
2019-04-26T13:51:51.892Z,16.53
2019-04-26T13:54:59.222Z,16.50
2019-04-26T13:58:06.543Z,16.45
2019-04-26T14:01:14.701Z,16.36
2019-04-26T14:04:32.384Z,16.50
2019-04-26T14:07:39.573Z,16.49
2019-04-26T14:10:49.904Z,16.37
2019-04-26T14:14:05.302Z,16.35
2019-04-26T14:17:21.925Z,16.27
2019-04-26T14:20:38.703Z,16.41
2019-04-26T14:24:05.106Z,16.22
2019-04-26T14:27:34.861Z,15.97
2019-04-26T14:30:54.209Z,15.92
2019-04-26T14:34:12.120Z,16.00
2019-04-26T14:37:19.457Z,15.84
2019-04-26T14:40:26.830Z,15.85
2019-04-26T14:43:43.664Z,15.82
2019-04-26T14:47:13.210Z,15.74
2019-04-26T14:50:18.783Z,15.80
2019-04-26T14:53:26.140Z,15.93
2019-04-26T14:56:52.352Z,15.84
2019-04-26T15:00:00.201Z,15.58
2019-04-26T15:03:29.114Z,15.75
2019-04-26T15:06:37.592Z,15.63
2019-04-26T15:09:45.615Z,15.49
2019-04-26T15:13:05.725Z,15.36
2019-04-26T15:16:03.952Z,15.42
2019-04-26T15:19:20.347Z,15.50
2019-04-26T15:22:37.044Z,15.50
2019-04-26T15:25:53.839Z,15.34
2019-04-26T15:29:02.489Z,15.37
2019-04-26T15:32:19.456Z,15.40
2019-04-26T15:35:36.196Z,15.45
2019-04-26T15:38:45.088Z,15.48
2019-04-26T15:42:29.291Z,15.28
2019-04-26T15:45:52.584Z,15.22
2019-04-26T15:49:42.938Z,15.34
2019-04-26T15:52:52.450Z,15.51
2019-04-26T15:55:59.612Z,15.60
2019-04-26T15:59:06.843Z,15.59
2019-04-26T16:02:14.161Z,15.43
2019-04-26T16:05:27.352Z,15.26
2019-04-26T16:08:42.913Z,15.27
2019-04-26T16:11:58.212Z,15.39
2019-04-26T16:15:06.619Z,15.10
2019-04-26T16:18:17.524Z,15.06
2019-04-26T16:21:23.853Z,14.94
2019-04-26T16:24:34.187Z,15.14
2019-04-26T16:27:40.287Z,15.06
2019-04-26T16:31:02.551Z,14.84
2019-04-26T16:34:27.118Z,14.86
2019-04-26T16:37:50.017Z,14.79
2019-04-26T16:41:14.626Z,14.71
2019-04-26T16:44:33.358Z,14.50
2019-04-26T16:47:49.723Z,14.68
2019-04-26T16:51:01.198Z,14.49
2019-04-26T16:54:10.223Z,14.43
2019-04-26T16:57:13.784Z,14.41
2019-04-26T17:00:31.844Z,14.51
2019-04-26T17:03:29.978Z,14.35
2019-04-26T17:06:44.303Z,14.14
2019-04-26T17:10:03.126Z,14.10
2019-04-26T17:12:55.434Z,14.40
2019-04-26T17:16:12.832Z,14.16
2019-04-26T17:19:20.250Z,14.22
2019-04-26T17:22:44.385Z,14.20
2019-04-26T17:26:42.890Z,14.10
2019-04-26T17:29:50.234Z,14.02
2019-04-26T17:32:57.586Z,13.86
2019-04-26T17:36:04.918Z,13.78
2019-04-26T17:39:16.810Z,13.88
2019-04-26T17:42:21.058Z,13.71
2019-04-26T17:45:28.402Z,13.71
2019-04-26T17:48:35.729Z,13.54
2019-04-26T17:51:57.870Z,13.61
2019-04-26T17:55:13.997Z,13.64
2019-04-26T17:58:27.517Z,13.56
2019-04-26T18:01:44.401Z,13.60
2019-04-26T18:04:40.815Z,13.37
2019-04-26T18:07:56.572Z,13.57
2019-04-26T18:10:56.398Z,13.40
2019-04-26T18:14:03.735Z,13.37
2019-04-26T18:17:52.045Z,13.29
2019-04-26T18:21:29.853Z,12.90
2019-04-26T18:24:37.093Z,12.83
2019-04-26T18:27:44.418Z,12.84
2019-04-26T18:31:01.361Z,12.80
2019-04-26T18:34:07.022Z,12.82
2019-04-26T18:37:14.157Z,12.85
2019-04-26T18:40:38.991Z,12.92
2019-04-26T18:43:49.317Z,12.84
2019-04-26T18:47:02.792Z,12.91
2019-04-26T18:50:10.529Z,12.88
2019-04-26T18:53:44.851Z,12.97
2019-04-26T18:57:17.134Z,13.07
2019-04-26T19:00:36.628Z,12.94
2019-04-26T19:03:43.891Z,13.03
2019-04-26T19:07:00.684Z,13.06
2019-04-26T19:10:17.516Z,12.87
2019-04-26T19:13:36.721Z,12.93
2019-04-26T19:17:05.947Z,12.78
2019-04-26T19:20:22.873Z,12.88
2019-04-26T19:23:30.578Z,12.79
2019-04-26T19:26:39.219Z,12.85
2019-04-26T19:29:46.467Z,12.62
2019-04-26T19:32:53.965Z,12.68
2019-04-26T19:36:01.116Z,12.65
2019-04-26T19:39:08.634Z,12.52
2019-04-26T19:42:15.944Z,12.40
2019-04-26T19:45:47.237Z,12.58
2019-04-26T19:49:30.032Z,12.51
2019-04-26T19:52:55.786Z,12.37
2019-04-26T19:56:31.486Z,12.26
2019-04-26T19:59:38.920Z,12.32
2019-04-26T20:02:55.646Z,12.38
2019-04-26T20:06:18.659Z,12.36
2019-04-26T20:09:31.924Z,12.39
2019-04-26T20:12:39.443Z,12.42
2019-04-26T20:15:46.787Z,12.41
2019-04-26T20:19:08.070Z,12.62
2019-04-26T20:22:13.674Z,12.68
2019-04-26T20:25:22.390Z,12.42
2019-04-26T20:28:29.701Z,12.45
2019-04-26T20:31:54.730Z,12.33
2019-04-26T20:35:13.397Z,12.64
2019-04-26T20:38:35.756Z,12.51
2019-04-26T20:42:00.536Z,12.41
2019-04-26T20:45:11.298Z,12.57
2019-04-26T20:48:30.108Z,12.34
2019-04-26T20:51:51.963Z,12.50
2019-04-26T20:55:09.378Z,12.55
2019-04-26T20:58:26.083Z,12.57
2019-04-26T21:01:33.410Z,12.54
2019-04-26T21:04:51.476Z,12.56
2019-04-26T21:07:58.947Z,12.35
2019-04-26T21:11:15.785Z,12.26
2019-04-26T21:14:32.561Z,12.12
2019-04-26T21:17:49.301Z,12.16
2019-04-26T21:21:10.543Z,12.21
2019-04-26T21:24:26.532Z,11.96
2019-04-26T21:28:08.126Z,12.06
2019-04-26T21:31:36.359Z,11.91
2019-04-26T21:34:46.436Z,11.70
2019-04-26T21:37:58.552Z,11.78
2019-04-26T21:41:11.684Z,11.84
2019-04-26T21:44:19.705Z,11.75
2019-04-26T21:47:27.593Z,11.77
2019-04-26T21:50:38.911Z,11.74
2019-04-26T21:53:45.352Z,11.96
2019-04-26T21:57:01.730Z,11.92
2019-04-26T22:00:37.027Z,12.04
2019-04-26T22:03:47.315Z,12.17
2019-04-26T22:07:05.224Z,12.02
2019-04-26T22:10:26.942Z,12.01
2019-04-26T22:13:54.634Z,11.92
2019-04-26T22:17:36.310Z,12.04
2019-04-26T22:20:51.211Z,11.82
2019-04-26T22:24:06.441Z,11.73
2019-04-26T22:27:17.391Z,11.83
2019-04-26T22:30:28.286Z,11.60
2019-04-26T22:33:36.115Z,11.76
2019-04-26T22:36:43.890Z,11.73
2019-04-26T22:39:51.180Z,11.62
2019-04-26T22:43:16.324Z,11.62
2019-04-26T22:46:48.851Z,11.68
2019-04-26T22:49:53.606Z,11.60
2019-04-26T22:53:00.928Z,11.46
2019-04-26T22:56:08.190Z,11.68
2019-04-26T22:59:15.337Z,11.40
2019-04-26T23:02:27.507Z,11.66
2019-04-26T23:05:37.333Z,11.85
2019-04-26T23:08:56.826Z,12.00
2019-04-26T23:12:47.745Z,12.03
2019-04-26T23:16:14.430Z,12.02
2019-04-26T23:19:27.198Z,11.66
2019-04-26T23:22:52.935Z,11.69
2019-04-26T23:26:02.303Z,11.46
2019-04-26T23:29:15.702Z,11.68
2019-04-26T23:32:27.554Z,11.55
2019-04-26T23:35:37.515Z,11.58
2019-04-26T23:38:53.337Z,11.44
2019-04-26T23:42:12.254Z,11.92
2019-04-26T23:45:28.905Z,12.08
2019-04-26T23:48:48.668Z,12.13
2019-04-26T23:52:04.061Z,12.27
2019-04-26T23:55:13.360Z,12.06
2019-04-26T23:58:20.803Z,11.82
